Cape May County Airport Wildwood US
ICAO: KWWD
IATA: WWD
Category: Medium
Scheduled Services: No

Elevation: 23 ft
TransAlt. 18000 ft.

Airport Communications:
APP/DEP:124.6
AWOS 3:118.275
CLNC DEL:121.7
CTAF/UNICOM:122.7

KWWD Zoom In..

Runways:

(A) RW 01 length 5003 ft width 150 ft
LOC 108.90 / hdg 10

(B) RW 10 length 4998 ft width 150 ft
LOC 108.90 / hdg 100

(C) RW 19 length 5003 ft width 150 ft
LOC 108.90 / hdg 190

(D) RW 28 length 4998 ft width 150 ft
LOC 108.90 / hdg 280

Location; KWWD
Day. 21 / Time. 23.56 Zulu
* Altimeter: 30.42
* Temperature: 13° c. 55.4°f.
* Wind from: 030° Speed 05 kn.
Dewpoint: 07° c.
Visibility: 10 Statute Miles.
Clouds: Clear (automated report).

KWWD 212356Z AUTO 03005KT 10SM CLR 13/07 A3042 RMK AO2 SLP304 T01280067 10178 20128 56008

Going to: --> -->


Wind From 030°
Speed 05 kn.

 
 
jpsmedia worldairports.se 2020   terms of use